createdAt,value
2018-10-21T00:01:31.555Z,52.13
2018-10-21T00:04:05.162Z,50.80
2018-10-21T00:06:38.698Z,52.10
2018-10-21T00:09:12.992Z,51.80
2018-10-21T00:11:46.390Z,51.00
2018-10-21T00:14:19.806Z,51.17
2018-10-21T00:16:53.227Z,49.80
2018-10-21T00:19:26.719Z,50.63
2018-10-21T00:22:00.132Z,49.17
2018-10-21T00:24:33.558Z,50.33
2018-10-21T00:27:07.269Z,49.53
2018-10-21T00:29:40.719Z,50.70
2018-10-21T00:32:14.124Z,50.10
2018-10-21T00:34:47.548Z,49.37
2018-10-21T00:37:20.971Z,49.93
2018-10-21T00:39:54.417Z,50.77
2018-10-21T00:42:27.879Z,50.77
2018-10-21T00:45:01.465Z,50.13
2018-10-21T00:47:34.851Z,50.43
2018-10-21T00:50:09.650Z,49.07
2018-10-21T00:52:43.030Z,50.70
2018-10-21T00:55:16.440Z,51.90
2018-10-21T00:57:49.840Z,50.90
2018-10-21T01:00:23.306Z,49.63
2018-10-21T01:02:57.105Z,49.90
2018-10-21T01:05:30.497Z,48.13
2018-10-21T01:08:04.031Z,48.77
2018-10-21T01:10:37.464Z,48.03
2018-10-21T01:13:10.859Z,48.67
2018-10-21T01:15:44.391Z,47.17
2018-10-21T01:18:17.786Z,46.43
2018-10-21T01:20:51.199Z,47.73
2018-10-21T01:23:24.588Z,47.57
2018-10-21T01:25:57.999Z,45.37
2018-10-21T01:28:31.388Z,46.77
2018-10-21T01:31:05.051Z,47.63
2018-10-21T01:33:38.444Z,48.17
2018-10-21T01:36:11.930Z,47.37
2018-10-21T01:38:45.326Z,49.63
2018-10-21T01:41:18.748Z,48.80
2018-10-21T01:43:52.149Z,50.80
2018-10-21T01:46:25.563Z,49.37
2018-10-21T01:48:58.979Z,49.37
2018-10-21T01:51:32.414Z,50.37
2018-10-21T01:54:05.939Z,46.90
2018-10-21T01:56:39.373Z,47.43
2018-10-21T01:59:12.783Z,48.43
2018-10-21T02:01:46.206Z,46.43
2018-10-21T02:04:19.648Z,47.20
2018-10-21T02:06:53.095Z,48.73
2018-10-21T02:09:26.495Z,48.27
2018-10-21T02:11:59.915Z,46.97
2018-10-21T02:14:33.318Z,46.73
2018-10-21T02:17:06.767Z,46.30
2018-10-21T02:19:40.170Z,46.70
2018-10-21T02:22:13.586Z,45.97
2018-10-21T02:24:47.071Z,45.43
2018-10-21T02:27:20.580Z,44.70
2018-10-21T02:29:53.983Z,47.37
2018-10-21T02:32:27.418Z,45.93
2018-10-21T02:35:00.831Z,46.37
2018-10-21T02:37:34.287Z,47.27
2018-10-21T02:40:17.809Z,46.27
2018-10-21T02:42:51.252Z,46.47
2018-10-21T02:45:24.633Z,46.20
2018-10-21T02:47:58.021Z,45.13
2018-10-21T02:50:31.428Z,46.03
2018-10-21T02:53:04.855Z,45.23
2018-10-21T02:55:38.223Z,47.80
2018-10-21T02:58:11.624Z,47.03
2018-10-21T03:00:45.067Z,46.40
2018-10-21T03:03:18.551Z,44.47
2018-10-21T03:05:51.857Z,46.90
2018-10-21T03:08:25.247Z,45.50
2018-10-21T03:10:59.054Z,47.20
2018-10-21T03:13:32.856Z,46.23
2018-10-21T03:16:06.308Z,45.33
2018-10-21T03:18:39.709Z,44.67
2018-10-21T03:21:13.191Z,44.90
2018-10-21T03:23:46.498Z,45.23
2018-10-21T03:26:19.880Z,45.63
2018-10-21T03:28:53.291Z,45.97
2018-10-21T03:31:26.659Z,47.23
2018-10-21T03:34:01.227Z,46.03
2018-10-21T03:36:34.532Z,46.13
2018-10-21T03:39:09.094Z,46.00
2018-10-21T03:41:42.498Z,46.90
2018-10-21T03:44:15.871Z,45.53
2018-10-21T03:46:49.271Z,44.47
2018-10-21T03:49:22.656Z,46.30
2018-10-21T03:51:56.092Z,44.73
2018-10-21T03:54:30.282Z,45.10
2018-10-21T03:57:04.768Z,46.13
2018-10-21T03:59:38.136Z,45.90
2018-10-21T04:02:11.536Z,45.33
2018-10-21T04:04:44.911Z,45.47
2018-10-21T04:07:18.307Z,45.87
2018-10-21T04:09:52.044Z,44.63
2018-10-21T04:12:25.433Z,45.47
2018-10-21T04:14:58.804Z,44.43
2018-10-21T04:17:32.312Z,44.00
2018-10-21T04:20:06.547Z,43.90
2018-10-21T04:22:45.444Z,44.23
2018-10-21T04:25:19.307Z,44.07
2018-10-21T04:27:53.651Z,45.10
2018-10-21T04:30:28.088Z,43.97
2018-10-21T04:33:23.769Z,45.10
2018-10-21T04:35:57.144Z,45.30
2018-10-21T04:38:41.919Z,44.73
2018-10-21T04:41:17.393Z,45.60
2018-10-21T04:43:50.786Z,44.73
2018-10-21T04:46:24.170Z,45.03
2018-10-21T04:48:57.579Z,44.83
2018-10-21T04:51:31.019Z,44.93
2018-10-21T04:54:04.447Z,46.10
2018-10-21T04:56:37.827Z,45.80
2018-10-21T04:59:11.219Z,45.80
2018-10-21T05:01:44.691Z,45.10
2018-10-21T05:04:18.113Z,43.13
2018-10-21T05:06:51.556Z,44.60
2018-10-21T05:09:25.567Z,43.77
2018-10-21T05:11:58.939Z,44.67
2018-10-21T05:14:32.334Z,44.57
2018-10-21T05:17:05.868Z,45.70
2018-10-21T05:19:39.252Z,46.30
2018-10-21T05:22:12.701Z,44.63
2018-10-21T05:24:46.103Z,50.33
2018-10-21T05:27:19.480Z,52.03
2018-10-21T05:29:52.867Z,48.10
2018-10-21T05:32:26.241Z,53.47
2018-10-21T05:34:59.632Z,52.60
2018-10-21T05:37:33.008Z,53.30
2018-10-21T05:40:08.901Z,52.53
2018-10-21T05:42:42.709Z,50.53
2018-10-21T05:45:16.147Z,50.63
2018-10-21T05:47:49.527Z,53.63
2018-10-21T05:50:22.954Z,53.50
2018-10-21T05:53:01.113Z,52.30
2018-10-21T05:55:34.516Z,63.17
2018-10-21T05:58:07.980Z,49.63
2018-10-21T06:00:41.356Z,48.20
2018-10-21T06:03:14.758Z,58.73
2018-10-21T06:05:49.092Z,47.97
2018-10-21T06:08:22.527Z,65.73
2018-10-21T06:10:55.900Z,97.23
2018-10-21T06:13:29.360Z,61.50
2018-10-21T06:16:02.781Z,52.47
2018-10-21T06:18:36.160Z,46.33
2018-10-21T06:21:09.532Z,44.50
2018-10-21T06:23:42.986Z,43.03
2018-10-21T06:26:16.328Z,44.93
2018-10-21T06:28:49.731Z,46.10
2018-10-21T06:31:23.179Z,43.47
2018-10-21T06:33:56.567Z,44.27
2018-10-21T06:36:29.941Z,46.00
2018-10-21T06:39:04.239Z,44.30
2018-10-21T06:41:37.587Z,45.87
2018-10-21T06:44:10.986Z,44.83
2018-10-21T06:46:44.399Z,43.90
2018-10-21T06:49:17.839Z,43.73
2018-10-21T06:51:51.248Z,44.03
2018-10-21T06:54:24.632Z,46.77
2018-10-21T06:56:58.067Z,44.13
2018-10-21T06:59:31.422Z,46.27
2018-10-21T07:02:05.158Z,45.10
2018-10-21T07:04:39.710Z,45.13
2018-10-21T07:07:13.001Z,44.33
2018-10-21T07:09:46.387Z,44.27
2018-10-21T07:12:19.856Z,43.83
2018-10-21T07:14:53.248Z,43.07
2018-10-21T07:17:28.714Z,44.47
2018-10-21T07:20:02.114Z,44.47
2018-10-21T07:22:35.482Z,45.17
2018-10-21T07:25:09.720Z,43.73
2018-10-21T07:27:43.091Z,44.57
2018-10-21T07:30:16.484Z,46.17
2018-10-21T07:32:49.859Z,43.30
2018-10-21T07:35:23.308Z,45.83
2018-10-21T07:37:56.671Z,46.40
2018-10-21T07:40:30.107Z,45.80
2018-10-21T07:43:03.483Z,46.63
2018-10-21T07:45:36.880Z,57.23
2018-10-21T07:48:10.248Z,58.03
2018-10-21T07:50:43.720Z,47.13
2018-10-21T07:53:17.107Z,84.07
2018-10-21T07:55:50.588Z,111.70
2018-10-21T07:58:23.920Z,48.67
2018-10-21T08:00:57.505Z,49.33
2018-10-21T08:03:30.867Z,45.07
2018-10-21T08:06:25.367Z,48.97
2018-10-21T08:08:58.792Z,46.67
2018-10-21T08:11:32.191Z,45.93
2018-10-21T08:14:05.613Z,53.10
2018-10-21T08:16:39.009Z,44.90
2018-10-21T08:19:12.424Z,47.67
2018-10-21T08:21:45.808Z,45.13
2018-10-21T08:24:19.219Z,54.00
2018-10-21T08:26:52.625Z,46.07
2018-10-21T08:29:26.019Z,44.77
2018-10-21T08:31:59.383Z,45.60
2018-10-21T08:34:33.891Z,57.00
2018-10-21T08:37:07.269Z,48.23
2018-10-21T08:39:40.692Z,56.17
2018-10-21T08:42:14.068Z,48.10
2018-10-21T08:44:47.486Z,47.83
2018-10-21T08:47:20.880Z,59.87
2018-10-21T08:49:54.315Z,128.33
2018-10-21T08:52:27.727Z,115.50
2018-10-21T08:55:01.134Z,119.83
2018-10-21T08:57:34.511Z,81.60
2018-10-21T09:00:11.911Z,94.67
2018-10-21T09:02:45.576Z,56.77
2018-10-21T09:05:19.536Z,52.73
2018-10-21T09:07:52.912Z,56.50
2018-10-21T09:10:26.344Z,49.93
2018-10-21T09:12:59.720Z,57.67
2018-10-21T09:15:33.139Z,73.80
2018-10-21T09:18:06.528Z,56.53
2018-10-21T09:20:39.987Z,60.80
2018-10-21T09:23:13.379Z,46.93
2018-10-21T09:25:46.766Z,48.17
2018-10-21T09:28:20.146Z,49.10
2018-10-21T09:30:53.583Z,49.00
2018-10-21T09:33:27.136Z,50.67
2018-10-21T09:36:00.467Z,68.50
2018-10-21T09:38:33.871Z,49.67
2018-10-21T09:41:07.286Z,50.23
2018-10-21T09:43:40.730Z,54.43
2018-10-21T09:46:15.311Z,49.37
2018-10-21T09:48:48.640Z,49.27
2018-10-21T09:51:22.036Z,50.20
2018-10-21T09:53:55.416Z,49.67
2018-10-21T09:56:28.816Z,50.33
2018-10-21T09:59:02.195Z,50.73
2018-10-21T10:01:41.010Z,50.87
2018-10-21T10:04:16.691Z,52.30
2018-10-21T10:06:50.080Z,49.63
2018-10-21T10:09:23.564Z,51.17
2018-10-21T10:11:57.008Z,54.67
2018-10-21T10:14:30.448Z,52.93
2018-10-21T10:17:03.885Z,51.43
2018-10-21T10:19:37.254Z,49.43
2018-10-21T10:22:10.875Z,50.23
2018-10-21T10:24:44.268Z,50.17
2018-10-21T10:27:17.765Z,47.53
2018-10-21T10:29:51.293Z,49.73
2018-10-21T10:32:24.817Z,52.47
2018-10-21T10:34:58.293Z,51.97
2018-10-21T10:37:32.481Z,50.60
2018-10-21T10:40:06.636Z,48.70
2018-10-21T10:42:40.154Z,47.70
2018-10-21T10:45:13.544Z,48.50
2018-10-21T10:47:47.028Z,47.47
2018-10-21T10:50:20.500Z,46.37
2018-10-21T10:52:53.980Z,44.83
2018-10-21T10:55:32.840Z,44.10
2018-10-21T10:58:06.417Z,44.10
2018-10-21T11:00:39.747Z,44.13
2018-10-21T11:03:13.132Z,44.47
2018-10-21T11:05:46.532Z,43.27
2018-10-21T11:08:20.185Z,42.83
2018-10-21T11:10:53.636Z,43.13
2018-10-21T11:13:28.211Z,43.10
2018-10-21T11:16:01.771Z,41.30
2018-10-21T11:18:35.260Z,42.57
2018-10-21T11:21:08.672Z,42.00
2018-10-21T11:23:42.244Z,41.33
2018-10-21T11:26:15.651Z,42.97
2018-10-21T11:28:49.032Z,42.53
2018-10-21T11:31:22.436Z,42.33
2018-10-21T11:33:55.903Z,42.47
2018-10-21T11:36:29.345Z,42.37
2018-10-21T11:39:03.985Z,42.30
2018-10-21T11:41:37.485Z,43.23
2018-10-21T11:44:10.879Z,43.57
2018-10-21T11:46:44.287Z,42.00
2018-10-21T11:49:17.772Z,43.53
2018-10-21T11:51:51.192Z,41.87
2018-10-21T11:54:24.663Z,41.40
2018-10-21T11:56:58.248Z,42.93
2018-10-21T11:59:31.664Z,40.70
2018-10-21T12:02:05.207Z,42.03
2018-10-21T12:04:38.584Z,42.07
2018-10-21T12:07:12.080Z,43.97
2018-10-21T12:09:46.523Z,43.00
2018-10-21T12:12:19.932Z,42.80
2018-10-21T12:14:53.315Z,43.00
2018-10-21T12:17:26.871Z,43.63
2018-10-21T12:20:00.310Z,42.33
2018-10-21T12:22:33.818Z,42.00
2018-10-21T12:25:07.342Z,42.47
2018-10-21T12:27:40.737Z,41.27
2018-10-21T12:30:14.119Z,41.40
2018-10-21T12:32:47.516Z,41.57
2018-10-21T12:35:20.908Z,40.53
2018-10-21T12:37:54.306Z,40.97
2018-10-21T12:40:27.691Z,40.57
2018-10-21T12:43:01.123Z,42.20
2018-10-21T12:45:34.594Z,41.20
2018-10-21T12:48:08.000Z,40.95
2018-10-21T12:50:41.439Z,41.60
2018-10-21T12:53:15.026Z,39.67
2018-10-21T12:55:50.528Z,41.73
2018-10-21T12:58:24.188Z,40.17
2018-10-21T13:00:57.613Z,39.20
2018-10-21T13:03:30.996Z,38.70
2018-10-21T13:06:04.453Z,39.03
2018-10-21T13:08:38.980Z,38.20
2018-10-21T13:11:12.579Z,38.13
2018-10-21T13:13:46.044Z,37.20
2018-10-21T13:16:19.450Z,39.67
2018-10-21T13:18:53.739Z,38.67
2018-10-21T13:21:27.159Z,38.60
2018-10-21T13:24:00.543Z,38.05
2018-10-21T13:26:33.964Z,37.48
2018-10-21T13:29:07.361Z,37.90
2018-10-21T13:31:40.763Z,37.60
2018-10-21T13:34:14.193Z,36.33
2018-10-21T13:36:47.583Z,36.65
2018-10-21T13:39:21.041Z,36.95
2018-10-21T13:41:54.434Z,36.63
2018-10-21T13:44:27.807Z,36.70
2018-10-21T13:47:01.211Z,36.88
2018-10-21T13:49:34.600Z,37.42
2018-10-21T13:52:08.190Z,36.30
2018-10-21T13:54:41.544Z,36.50
2018-10-21T13:57:15.508Z,36.23
2018-10-21T13:59:48.887Z,35.52
2018-10-21T14:02:22.807Z,35.52
2018-10-21T14:04:56.209Z,35.88
2018-10-21T14:07:29.655Z,34.55
2018-10-21T14:10:03.123Z,35.15
2018-10-21T14:12:36.547Z,34.40
2018-10-21T14:15:09.989Z,34.40
2018-10-21T14:17:43.351Z,34.70
2018-10-21T14:20:16.746Z,34.08
2018-10-21T14:22:50.139Z,35.25
2018-10-21T14:25:23.592Z,33.95
2018-10-21T14:27:57.027Z,35.35
2018-10-21T14:30:30.583Z,34.75
2018-10-21T14:33:03.966Z,33.92
2018-10-21T14:35:37.335Z,34.70
2018-10-21T14:38:10.804Z,33.75
2018-10-21T14:40:44.644Z,35.23
2018-10-21T14:43:18.124Z,36.45
2018-10-21T14:45:51.691Z,33.98
2018-10-21T14:48:25.048Z,32.75
2018-10-21T14:50:58.439Z,33.83
2018-10-21T14:53:31.851Z,33.92
2018-10-21T14:56:05.823Z,32.90
2018-10-21T14:58:39.219Z,33.38
2018-10-21T15:01:12.690Z,33.20
2018-10-21T15:03:46.141Z,32.80
2018-10-21T15:06:19.531Z,32.48
2018-10-21T15:08:52.932Z,32.78
2018-10-21T15:11:26.387Z,32.67
2018-10-21T15:13:59.820Z,33.00
2018-10-21T15:16:33.237Z,33.15
2018-10-21T15:19:06.805Z,32.30
2018-10-21T15:21:40.212Z,32.28
2018-10-21T15:24:13.681Z,32.45
2018-10-21T15:26:47.164Z,32.67
2018-10-21T15:29:20.588Z,32.67
2018-10-21T15:31:54.178Z,32.88
2018-10-21T15:34:27.586Z,32.83
2018-10-21T15:37:00.981Z,33.05
2018-10-21T15:39:34.386Z,32.35
2018-10-21T15:42:07.777Z,33.23
2018-10-21T15:44:42.200Z,32.70
2018-10-21T15:47:15.593Z,32.45
2018-10-21T15:49:49.023Z,33.00
2018-10-21T15:52:22.465Z,33.25
2018-10-21T15:54:55.816Z,32.78
2018-10-21T15:57:29.195Z,33.38
2018-10-21T16:00:02.601Z,32.38
2018-10-21T16:02:36.216Z,33.23
2018-10-21T16:05:10.260Z,32.73
2018-10-21T16:07:43.635Z,33.53
2018-10-21T16:10:17.128Z,32.63
2018-10-21T16:12:51.472Z,33.70
2018-10-21T16:15:24.863Z,33.38
2018-10-21T16:17:58.231Z,33.83
2018-10-21T16:20:31.633Z,33.90
2018-10-21T16:23:06.091Z,34.03
2018-10-21T16:25:39.567Z,33.75
2018-10-21T16:28:12.886Z,33.20
2018-10-21T16:30:46.423Z,33.63
2018-10-21T16:33:20.015Z,34.60
2018-10-21T16:35:53.489Z,34.53
2018-10-21T16:38:27.039Z,33.63
2018-10-21T16:41:00.411Z,34.40
2018-10-21T16:43:33.820Z,33.58
2018-10-21T16:46:07.274Z,33.40
2018-10-21T16:48:40.689Z,33.50
2018-10-21T16:51:14.206Z,33.63
2018-10-21T16:53:47.604Z,33.58
2018-10-21T16:56:20.987Z,34.70
2018-10-21T16:58:54.447Z,33.90
2018-10-21T17:01:27.843Z,33.33
2018-10-21T17:04:01.271Z,33.98
2018-10-21T17:06:34.657Z,33.53
2018-10-21T17:09:10.562Z,32.75
2018-10-21T17:11:44.396Z,33.33
2018-10-21T17:14:17.804Z,32.60
2018-10-21T17:16:51.240Z,32.35
2018-10-21T17:19:24.626Z,32.50
2018-10-21T17:21:58.079Z,31.90
2018-10-21T17:24:31.512Z,31.57
2018-10-21T17:27:05.168Z,31.65
2018-10-21T17:29:38.648Z,31.80
2018-10-21T17:32:13.127Z,32.28
2018-10-21T17:34:46.520Z,32.20
2018-10-21T17:37:19.888Z,31.42
2018-10-21T17:39:53.298Z,31.62
2018-10-21T17:42:26.721Z,32.15
2018-10-21T17:45:00.292Z,31.82
2018-10-21T17:47:33.661Z,31.75
2018-10-21T17:50:08.264Z,30.75
2018-10-21T17:52:42.073Z,30.88
2018-10-21T17:55:15.571Z,30.70
2018-10-21T17:57:48.964Z,30.72
2018-10-21T18:00:22.405Z,30.90
2018-10-21T18:02:55.840Z,30.17
2018-10-21T18:05:29.284Z,30.57
2018-10-21T18:08:02.683Z,30.77
2018-10-21T18:10:36.132Z,30.75
2018-10-21T18:13:10.663Z,30.80
2018-10-21T18:15:43.975Z,30.48
2018-10-21T18:18:17.451Z,30.25
2018-10-21T18:20:50.851Z,30.08
2018-10-21T18:23:24.239Z,30.12
2018-10-21T18:25:57.696Z,30.27
2018-10-21T18:28:31.148Z,30.23
2018-10-21T18:31:04.663Z,30.10
2018-10-21T18:33:38.036Z,30.35
2018-10-21T18:36:11.444Z,30.27
2018-10-21T18:38:44.880Z,30.12
2018-10-21T18:41:18.664Z,30.37
2018-10-21T18:43:52.164Z,30.12
2018-10-21T18:46:25.574Z,30.48
2018-10-21T18:49:01.104Z,29.98
2018-10-21T18:51:34.512Z,29.75
2018-10-21T18:54:07.935Z,30.05
2018-10-21T18:56:41.652Z,29.40
2018-10-21T18:59:15.063Z,30.20
2018-10-21T19:01:48.480Z,32.15
2018-10-21T19:04:21.884Z,32.08
2018-10-21T19:06:55.314Z,32.17
2018-10-21T19:09:30.797Z,32.30
2018-10-21T19:12:04.251Z,32.55
2018-10-21T19:14:37.643Z,31.87
2018-10-21T19:17:11.043Z,31.75
2018-10-21T19:19:44.423Z,32.03
2018-10-21T19:22:17.896Z,31.20
2018-10-21T19:24:51.264Z,32.40
2018-10-21T19:27:24.704Z,31.33
2018-10-21T19:29:58.164Z,31.83
2018-10-21T19:32:31.572Z,31.43
2018-10-21T19:35:05.384Z,31.12
2018-10-21T19:37:38.968Z,30.83
2018-10-21T19:40:14.506Z,31.43
2018-10-21T19:42:47.973Z,30.57
2018-10-21T19:45:21.342Z,30.67
2018-10-21T19:47:54.854Z,30.40
2018-10-21T19:50:28.268Z,30.30
2018-10-21T19:53:01.684Z,30.47
2018-10-21T19:55:35.069Z,30.30
2018-10-21T19:58:08.495Z,30.43
2018-10-21T20:00:41.871Z,31.37
2018-10-21T20:03:15.340Z,31.00
2018-10-21T20:05:48.775Z,31.00
2018-10-21T20:08:22.240Z,30.87
2018-10-21T20:10:55.730Z,31.50
2018-10-21T20:13:29.112Z,30.87
2018-10-21T20:16:02.533Z,30.92
2018-10-21T20:18:37.008Z,30.70
2018-10-21T20:21:10.481Z,31.00
2018-10-21T20:23:43.867Z,30.90
2018-10-21T20:26:17.360Z,30.43
2018-10-21T20:28:50.747Z,30.43
2018-10-21T20:31:24.385Z,31.27
2018-10-21T20:33:57.786Z,30.23
2018-10-21T20:36:31.254Z,30.73
2018-10-21T20:39:07.144Z,30.03
2018-10-21T20:41:40.588Z,31.70
2018-10-21T20:44:13.989Z,31.07
2018-10-21T20:46:47.426Z,30.60
2018-10-21T20:49:20.872Z,30.70
2018-10-21T20:51:54.312Z,30.23
2018-10-21T20:54:33.129Z,31.40
2018-10-21T20:57:09.676Z,30.40
2018-10-21T20:59:44.234Z,31.00
2018-10-21T21:02:17.665Z,30.80
2018-10-21T21:04:51.061Z,29.43
2018-10-21T21:07:24.556Z,30.17
2018-10-21T21:09:58.084Z,29.50
2018-10-21T21:12:31.482Z,30.27
2018-10-21T21:15:05.612Z,29.97
2018-10-21T21:17:39.091Z,30.13
2018-10-21T21:20:12.492Z,30.03
2018-10-21T21:22:45.924Z,30.00
2018-10-21T21:25:19.384Z,29.93
2018-10-21T21:27:52.812Z,31.13
2018-10-21T21:30:26.265Z,30.27
2018-10-21T21:32:59.665Z,31.30
2018-10-21T21:35:33.176Z,30.77
2018-10-21T21:38:06.606Z,30.77
2018-10-21T21:40:39.975Z,30.23
2018-10-21T21:43:13.373Z,31.00
2018-10-21T21:45:46.769Z,31.20
2018-10-21T21:48:20.231Z,29.90
2018-10-21T21:50:53.607Z,30.30
2018-10-21T21:53:27.000Z,30.40
2018-10-21T21:56:00.445Z,30.13
2018-10-21T21:58:33.852Z,30.03
2018-10-21T22:01:07.331Z,30.30
2018-10-21T22:03:40.731Z,29.60
2018-10-21T22:06:14.264Z,30.03
2018-10-21T22:08:47.547Z,29.83
2018-10-21T22:11:20.944Z,30.00
2018-10-21T22:13:54.363Z,30.17
2018-10-21T22:16:27.803Z,29.40
2018-10-21T22:19:01.209Z,29.80
2018-10-21T22:21:34.879Z,30.17
2018-10-21T22:24:09.785Z,29.83
2018-10-21T22:26:43.186Z,29.33
2018-10-21T22:29:16.616Z,29.77
2018-10-21T22:31:50.061Z,29.97
2018-10-21T22:34:23.508Z,29.90
2018-10-21T22:36:56.936Z,29.60
2018-10-21T22:39:33.788Z,30.13
2018-10-21T22:42:07.253Z,29.97
2018-10-21T22:44:40.611Z,29.93
2018-10-21T22:47:14.018Z,29.50
2018-10-21T22:49:47.417Z,29.17
2018-10-21T22:52:20.906Z,29.30
2018-10-21T22:54:54.284Z,29.33
2018-10-21T22:57:27.683Z,29.40
2018-10-21T23:00:01.177Z,29.47
2018-10-21T23:02:34.591Z,30.27
2018-10-21T23:05:08.451Z,29.77
2018-10-21T23:07:41.855Z,30.07
2018-10-21T23:10:15.379Z,29.60
2018-10-21T23:12:48.726Z,30.13
2018-10-21T23:15:22.148Z,29.63
2018-10-21T23:17:55.633Z,29.20
2018-10-21T23:20:28.999Z,30.63
2018-10-21T23:23:02.405Z,30.43
2018-10-21T23:25:35.776Z,29.90
2018-10-21T23:28:09.289Z,31.43
2018-10-21T23:30:42.675Z,30.70
2018-10-21T23:33:16.100Z,30.37
2018-10-21T23:35:49.471Z,30.27
2018-10-21T23:38:22.911Z,30.40
2018-10-21T23:40:57.373Z,30.90
2018-10-21T23:43:30.767Z,30.77
2018-10-21T23:46:04.241Z,30.50
2018-10-21T23:48:37.659Z,30.13
2018-10-21T23:51:11.051Z,30.27
2018-10-21T23:53:44.443Z,30.77
2018-10-21T23:56:17.875Z,30.13
2018-10-21T23:58:51.276Z,29.63
